createdAt,value
2022-12-20T00:02:20.588Z,90.47
2022-12-20T00:07:22.585Z,90.77
2022-12-20T00:12:29.816Z,90.42
2022-12-20T00:17:31.712Z,90.29
2022-12-20T00:22:33.610Z,90.92
2022-12-20T00:27:35.450Z,90.76
2022-12-20T00:32:38.543Z,91.08
2022-12-20T00:37:40.517Z,91.62
2022-12-20T00:42:42.278Z,91.87
2022-12-20T00:47:44.059Z,92.00
2022-12-20T00:52:45.814Z,92.01
2022-12-20T00:57:47.667Z,91.48
2022-12-20T01:02:49.566Z,91.64
2022-12-20T01:07:51.525Z,91.58
2022-12-20T01:12:54.158Z,91.35
2022-12-20T01:17:56.073Z,91.39
2022-12-20T01:22:57.843Z,91.35
2022-12-20T01:27:59.607Z,91.33
2022-12-20T01:33:01.479Z,91.23
2022-12-20T01:38:03.452Z,91.38
2022-12-20T01:43:05.251Z,91.41
2022-12-20T01:48:07.632Z,91.47
2022-12-20T01:53:10.320Z,91.50
2022-12-20T01:58:14.501Z,91.13
2022-12-20T02:03:16.966Z,91.09
2022-12-20T02:08:20.338Z,90.77
2022-12-20T02:13:30.353Z,90.48
2022-12-20T02:18:43.228Z,90.45
2022-12-20T02:24:03.661Z,90.41
2022-12-20T02:29:27.697Z,90.41
2022-12-20T02:34:33.900Z,90.60
2022-12-20T02:39:39.267Z,90.40
2022-12-20T02:45:10.246Z,90.65
2022-12-20T02:50:12.990Z,90.55
2022-12-20T02:55:16.284Z,90.61
2022-12-20T03:00:21.589Z,90.70
2022-12-20T03:05:25.709Z,90.38
2022-12-20T03:10:28.275Z,90.43
2022-12-20T03:15:30.227Z,90.34
2022-12-20T03:20:33.372Z,90.78
2022-12-20T03:25:35.181Z,90.63
2022-12-20T03:30:37.916Z,90.73
2022-12-20T03:35:39.976Z,90.86
2022-12-20T03:40:42.971Z,90.84
2022-12-20T03:45:46.875Z,90.97
2022-12-20T03:50:49.235Z,91.21
2022-12-20T03:55:51.081Z,91.00
2022-12-20T04:00:53.332Z,91.10
2022-12-20T04:06:16.191Z,91.22
2022-12-20T04:11:18.478Z,91.51
2022-12-20T04:16:29.852Z,91.22
2022-12-20T04:21:34.435Z,91.58
2022-12-20T04:26:36.624Z,91.51
2022-12-20T04:31:39.494Z,91.36
2022-12-20T04:36:41.625Z,91.57
2022-12-20T04:41:49.096Z,91.57
2022-12-20T04:46:50.973Z,91.41
2022-12-20T04:51:53.404Z,91.42
2022-12-20T04:56:55.958Z,91.39
2022-12-20T05:01:58.472Z,91.37
2022-12-20T05:07:20.566Z,91.27
2022-12-20T05:12:26.371Z,91.55
2022-12-20T05:17:31.756Z,91.75
2022-12-20T05:22:53.887Z,91.78
2022-12-20T05:27:56.098Z,91.83
2022-12-20T05:32:59.433Z,91.79
2022-12-20T05:38:02.830Z,92.01
2022-12-20T05:43:06.966Z,91.95
2022-12-20T05:48:17.320Z,91.87
2022-12-20T05:53:19.689Z,92.04
2022-12-20T05:58:24.606Z,92.17
2022-12-20T06:03:33.107Z,92.15
2022-12-20T06:08:37.232Z,92.07
2022-12-20T06:13:43.170Z,92.15
2022-12-20T06:18:45.286Z,92.17
2022-12-20T06:23:48.486Z,92.15
2022-12-20T06:28:57.150Z,92.25
2022-12-20T06:34:25.304Z,92.36
2022-12-20T06:39:27.591Z,92.35
2022-12-20T06:44:49.042Z,92.34
2022-12-20T06:49:51.005Z,92.51
2022-12-20T06:54:57.071Z,92.37
2022-12-20T06:59:59.639Z,92.42
2022-12-20T07:05:01.618Z,92.32
2022-12-20T07:10:04.041Z,92.26
2022-12-20T07:15:06.147Z,91.63
2022-12-20T07:20:13.255Z,91.68
2022-12-20T07:25:16.174Z,91.51
2022-12-20T07:30:19.355Z,91.49
2022-12-20T07:35:21.151Z,91.40
2022-12-20T07:40:22.995Z,91.29
2022-12-20T07:45:24.897Z,91.16
2022-12-20T07:50:28.688Z,90.28
2022-12-20T07:55:31.347Z,90.44
2022-12-20T08:00:33.697Z,89.96
2022-12-20T08:05:41.070Z,89.57
2022-12-20T08:10:43.674Z,89.23
2022-12-20T08:15:45.472Z,89.59
2022-12-20T08:20:47.958Z,89.12
2022-12-20T08:25:50.219Z,89.12
2022-12-20T08:30:52.294Z,88.47
2022-12-20T08:35:59.302Z,87.86
2022-12-20T08:41:08.004Z,86.98
2022-12-20T08:46:12.192Z,86.37
2022-12-20T08:51:14.165Z,86.31
2022-12-20T08:56:17.870Z,86.22
2022-12-20T09:01:21.908Z,85.42
2022-12-20T09:06:24.068Z,84.54
2022-12-20T09:11:26.921Z,84.55
2022-12-20T09:16:32.747Z,84.48
2022-12-20T09:21:35.302Z,83.93
2022-12-20T09:26:37.260Z,83.04
2022-12-20T09:31:39.107Z,83.69
2022-12-20T09:36:40.869Z,83.53
2022-12-20T09:41:44.360Z,83.60
2022-12-20T09:46:55.167Z,83.09
2022-12-20T09:52:21.705Z,83.19
2022-12-20T09:57:34.488Z,82.70
2022-12-20T10:02:58.353Z,81.80
2022-12-20T10:08:15.706Z,81.39
2022-12-20T10:13:48.604Z,80.85
2022-12-20T10:19:13.738Z,81.22
2022-12-20T10:24:21.508Z,81.61
2022-12-20T10:29:23.884Z,81.84
2022-12-20T10:34:27.838Z,81.59
2022-12-20T10:39:43.879Z,81.65
2022-12-20T10:44:45.691Z,82.00
2022-12-20T10:49:47.398Z,81.86
2022-12-20T10:54:49.191Z,81.61
2022-12-20T11:00:05.595Z,80.89
2022-12-20T11:05:14.543Z,81.18
2022-12-20T11:10:28.996Z,80.61
2022-12-20T11:15:34.898Z,80.89
2022-12-20T11:20:58.667Z,80.53
2022-12-20T11:26:28.440Z,80.68
2022-12-20T11:32:00.713Z,80.38
2022-12-20T11:37:14.375Z,79.79
2022-12-20T11:42:31.509Z,79.96
2022-12-20T11:48:01.177Z,80.28
2022-12-20T11:53:20.586Z,80.24
2022-12-20T11:58:41.403Z,80.51
2022-12-20T12:04:18.286Z,79.98
2022-12-20T12:09:30.609Z,80.41
2022-12-20T12:14:52.572Z,79.76
2022-12-20T12:20:01.367Z,80.72
2022-12-20T12:25:12.186Z,80.53
2022-12-20T12:30:16.373Z,80.89
2022-12-20T12:35:52.614Z,81.50
2022-12-20T12:41:03.779Z,81.04
2022-12-20T12:46:14.657Z,81.04
2022-12-20T12:51:24.081Z,81.36
2022-12-20T12:56:43.144Z,81.60
2022-12-20T13:02:16.213Z,81.00
2022-12-20T13:07:28.823Z,81.70
2022-12-20T13:12:36.505Z,82.47
2022-12-20T13:17:45.332Z,82.72
2022-12-20T13:23:05.562Z,83.16
2022-12-20T13:28:19.682Z,82.92
2022-12-20T13:33:42.050Z,83.03
2022-12-20T13:38:44.907Z,83.38
2022-12-20T13:43:49.678Z,83.51
2022-12-20T13:49:00.941Z,83.81
2022-12-20T13:54:05.622Z,83.95
2022-12-20T13:59:31.106Z,84.37
2022-12-20T14:04:42.885Z,84.52
2022-12-20T14:09:51.989Z,84.32
2022-12-20T14:14:54.467Z,84.55
2022-12-20T14:20:17.309Z,84.75
2022-12-20T14:25:28.070Z,85.02
2022-12-20T14:30:32.635Z,84.90
2022-12-20T14:35:34.484Z,85.39
2022-12-20T14:40:42.610Z,85.24
2022-12-20T14:45:44.472Z,85.43
2022-12-20T14:50:53.761Z,85.90
2022-12-20T14:55:56.277Z,86.30
2022-12-20T15:01:22.224Z,86.46
2022-12-20T15:06:34.859Z,86.81
2022-12-20T15:11:38.139Z,87.05
2022-12-20T15:16:47.781Z,87.07
2022-12-20T15:21:50.589Z,87.29
2022-12-20T15:26:52.463Z,87.58
2022-12-20T15:32:21.272Z,87.63
2022-12-20T15:37:22.993Z,88.01
2022-12-20T15:42:24.898Z,88.00
2022-12-20T15:47:26.628Z,88.25
2022-12-20T15:52:28.415Z,88.64
2022-12-20T15:57:30.939Z,88.66
2022-12-20T16:02:33.492Z,88.62
2022-12-20T16:07:35.639Z,88.86
2022-12-20T16:12:37.426Z,88.96
2022-12-20T16:17:39.263Z,89.10
2022-12-20T16:22:41.148Z,89.12
2022-12-20T16:27:42.861Z,89.13
2022-12-20T16:32:44.577Z,89.30
2022-12-20T16:37:46.281Z,89.58
2022-12-20T16:42:47.981Z,89.60
2022-12-20T16:47:50.095Z,89.95
2022-12-20T16:52:52.309Z,89.92
2022-12-20T16:57:54.397Z,90.24
2022-12-20T17:02:56.881Z,89.92
2022-12-20T17:07:59.127Z,90.06
2022-12-20T17:13:01.998Z,90.35
2022-12-20T17:18:03.919Z,90.06
2022-12-20T17:23:08.775Z,90.21
2022-12-20T17:28:10.525Z,90.13
2022-12-20T17:33:15.410Z,90.02
2022-12-20T17:38:17.124Z,89.96
2022-12-20T17:43:18.809Z,90.25
2022-12-20T17:48:20.593Z,89.99
2022-12-20T17:53:22.269Z,90.16
2022-12-20T17:58:24.026Z,89.89
2022-12-20T18:04:03.762Z,90.06
2022-12-20T18:08:52.321Z,90.12
2022-12-20T18:13:57.608Z,90.17
2022-12-20T18:19:00.912Z,90.13
2022-12-20T18:24:02.636Z,90.43
2022-12-20T18:29:04.418Z,90.35
2022-12-20T18:34:07.078Z,90.40
2022-12-20T18:39:12.618Z,90.46
2022-12-20T18:44:14.369Z,90.58
2022-12-20T18:49:16.123Z,90.40
2022-12-20T18:54:18.133Z,90.16
2022-12-20T18:59:21.212Z,90.28
2022-12-20T19:04:25.148Z,90.35
2022-12-20T19:09:27.184Z,89.95
2022-12-20T19:14:31.036Z,90.17
2022-12-20T19:19:32.865Z,90.02
2022-12-20T19:24:34.603Z,90.26
2022-12-20T19:29:36.324Z,90.18
2022-12-20T19:34:38.166Z,90.27
2022-12-20T19:39:39.821Z,90.18
2022-12-20T19:44:41.598Z,90.28
2022-12-20T19:49:43.321Z,90.03
2022-12-20T19:54:45.107Z,89.93
2022-12-20T19:59:50.880Z,89.88
2022-12-20T20:04:57.272Z,89.90
2022-12-20T20:09:59.102Z,89.73
2022-12-20T20:15:01.098Z,89.99
2022-12-20T20:20:03.070Z,89.67
2022-12-20T20:25:05.407Z,89.84
2022-12-20T20:30:07.888Z,89.57
2022-12-20T20:35:11.066Z,89.81
2022-12-20T20:40:14.278Z,89.73
2022-12-20T20:45:16.991Z,89.85
2022-12-20T20:50:18.751Z,89.77
2022-12-20T20:55:20.449Z,89.98
2022-12-20T21:00:22.412Z,89.84
2022-12-20T21:10:46.197Z,89.78
2022-12-20T21:15:48.139Z,89.64
2022-12-20T21:20:50.253Z,89.46
2022-12-20T21:25:58.575Z,89.62
2022-12-20T21:31:02.453Z,89.31
2022-12-20T21:36:06.928Z,89.40
2022-12-20T21:41:12.387Z,89.29
2022-12-20T21:46:14.271Z,89.27
2022-12-20T21:51:20.715Z,89.24
2022-12-20T21:56:24.226Z,89.24
2022-12-20T22:01:28.012Z,89.02
2022-12-20T22:06:31.586Z,89.03
2022-12-20T22:11:34.680Z,89.24
2022-12-20T22:16:37.789Z,89.36
2022-12-20T22:21:39.731Z,89.44
2022-12-20T22:26:41.712Z,89.42
2022-12-20T22:31:43.538Z,89.33
2022-12-20T22:36:45.346Z,89.38
2022-12-20T22:41:47.045Z,89.48
2022-12-20T22:46:48.833Z,89.58
2022-12-20T22:52:05.927Z,89.45
2022-12-20T22:57:10.398Z,89.49
2022-12-20T23:02:12.332Z,89.70
2022-12-20T23:07:14.434Z,89.88
2022-12-20T23:12:35.135Z,89.76
2022-12-20T23:17:36.840Z,89.83
2022-12-20T23:22:38.578Z,90.09
2022-12-20T23:27:43.015Z,90.22
2022-12-20T23:32:44.957Z,90.50
2022-12-20T23:37:47.226Z,90.60
2022-12-20T23:42:48.973Z,90.55
2022-12-20T23:47:50.739Z,90.41
2022-12-20T23:52:52.462Z,90.37
2022-12-20T23:57:54.231Z,90.35
